Maastricht, Netherlands

1:45 AM CEST on March 28, 2017 (GMT +0200)
Maastricht-Aachen | | Change Station

Elev 381 ft 50.92 °N, 5.78 °E | Updated 20 minutes ago

Clear
Clear
48 °F
Feels Like 48 °F
N
6
Wind Variable Wind from South

Today
High -- | Low -- °F
--% Chance of Precip.
Yesterday
High -- | Low -- °F
Precip. -- in
Pressure 30.15 in
Visibility 6.2 miles
Clouds
Dew Point 32 °F
Humidity 54%
Rainfall 0.00 in
Snow Depth Not available.
7:21 AM 8:03 PM
Waning Crescent, 0% visible
METAR EHBK 272325Z AUTO 19005KT 9999 NSC 09/00 Q1021
Pressure 30.15 in
Visibility 6.2 miles
Clouds
Dew Point 32 °F
Humidity 54%
Rainfall 0.00 in
Snow Depth Not available.
7:21 AM 8:03 PM
Waning Crescent, 0% visible
METAR EHBK 272325Z AUTO 19005KT 9999 NSC 09/00 Q1021

Get Severe Weather Alerts

Thanks for signing up!

Be on the lookout for a verification email in your inbox.

You'll start receiving the daily forecast at 8 AM.

×

10-Day Weather Forecast

×

Almanac

Astronomy

Mar. 28, 2017 Rise Set
Actual Time
Civil Twilight
Nautical Twilight
Astronomical Twilight
Moon
Length of Visible Light
Length of Day
Tomorrow will be .
, % of the Moon is Illuminated

Today's Extremes

Country Highs Country Lows

Community

WunderPhotos

Upload Photos

1,962,540 photos uploaded!

WunderBlog® & News

Nearby

Air Quality

  Air Quality AQ Index Pollutant
Not available.

Snow Depth

Station Depth Elevation

Earthquake Activity

City Distance Mag. Time & Date
Minimum magnitude displayed is 2.5.

Earthquake Activity

City Distance Mag. Time & Date
Minimum magnitude displayed is 2.5.

Coastal Water Temperatures

Place Temperature

Stations

Nearby Weather Stations

Station Location Temp. Windchill Dew Point Humidity Wind Precip. Elev Updated Type